Time;durP1;ratioP1;P1;durP2;ratioP2;P2;SDS_P1;SDS_P2;PMS_P1;PMS_P2;Temp;Humidity;BMP_temperature;BMP_pressure;BME280_temperature;BME280_humidity;BME280_pressure;Samples;Min_cycle;Max_cycle;Signal;HPM_P1;HPM_P2
2022/11/12 00:00:49;;;;;;;26.20;11.30;;;;;;;10.55;100.00;102386.28;4974538;28;20407;-78
2022/11/12 00:03:33;;;;;;;21.90;12.13;;;;;;;10.57;100.00;102400.38;4959329;28;20049;-77
2022/11/12 00:06:17;;;;;;;25.67;11.73;;;;;;;10.54;100.00;102387.28;4961003;28;20061;-76
2022/11/12 00:09:01;;;;;;;25.15;11.90;;;;;;;10.55;100.00;102391.63;4954982;28;20046;-77
2022/11/12 00:11:45;;;;;;;29.67;14.13;;;;;;;10.56;100.00;102400.53;4960787;28;20049;-77
2022/11/12 00:14:29;;;;;;;22.70;12.15;;;;;;;10.54;100.00;102389.94;4954875;28;20097;-77
2022/11/12 00:17:13;;;;;;;23.08;13.82;;;;;;;10.53;100.00;102398.91;4974475;28;20045;-76
2022/11/12 00:19:57;;;;;;;25.65;12.38;;;;;;;10.55;100.00;102390.78;4957333;28;20070;-77
2022/11/12 00:22:41;;;;;;;22.15;12.02;;;;;;;10.56;100.00;102398.69;4960293;28;20385;-78
2022/11/12 00:25:24;;;;;;;21.98;11.82;;;;;;;10.53;100.00;102396.25;4952147;28;20045;-77
2022/11/12 00:28:10;;;;;;;29.63;13.38;;;;;;;10.57;100.00;102407.53;4961445;28;20034;-76
2022/11/12 00:30:54;;;;;;;19.48;11.85;;;;;;;10.56;100.00;102408.53;4964389;28;20049;-77
2022/11/12 00:33:40;;;;;;;22.17;13.05;;;;;;;10.58;100.00;102406.56;4960618;28;20524;-77
2022/11/12 00:36:24;;;;;;;25.77;12.10;;;;;;;10.57;100.00;102408.38;4957598;28;20082;-77
2022/11/12 00:39:08;;;;;;;24.85;12.82;;;;;;;10.55;100.00;102396.97;4974122;28;20108;-76
2022/11/12 00:41:52;;;;;;;25.23;13.73;;;;;;;10.53;100.00;102404.25;4958522;28;20057;-77
2022/11/12 00:44:36;;;;;;;24.20;13.32;;;;;;;10.50;100.00;102392.97;4961453;28;20053;-77
2022/11/12 00:47:20;;;;;;;24.13;13.68;;;;;;;10.49;100.00;102397.47;4957560;28;20042;-77
2022/11/12 00:50:05;;;;;;;24.80;12.90;;;;;;;10.43;100.00;102395.28;4959974;28;20197;-77
2022/11/12 00:52:53;;;;;;;27.88;14.63;;;;;;;10.35;100.00;102400.41;4972748;28;20101;-76
2022/11/12 00:55:37;;;;;;;26.23;13.55;;;;;;;10.37;100.00;102402.94;4955503;28;20435;-76
2022/11/12 00:58:22;;;;;;;26.80;13.50;;;;;;;10.29;100.00;102414.22;4957714;28;20050;-77
2022/11/12 01:01:09;;;;;;;25.05;14.35;;;;;;;10.25;100.00;102410.03;4961862;28;20050;-77
2022/11/12 01:03:56;;;;;;;25.08;12.77;;;;;;;10.15;100.00;102415.25;4959164;28;20074;-77
2022/11/12 01:06:40;;;;;;;29.50;15.20;;;;;;;10.08;100.00;102425.53;4961371;28;20577;-78
2022/11/12 01:09:25;;;;;;;25.92;12.98;;;;;;;10.03;100.00;102430.41;4970854;28;20571;-77
2022/11/12 01:12:09;;;;;;;31.90;16.27;;;;;;;10.00;100.00;102437.81;4961333;28;20412;-78
2022/11/12 01:14:53;;;;;;;31.38;15.77;;;;;;;9.90;100.00;102435.84;4959239;28;20131;-78
2022/11/12 01:17:37;;;;;;;30.55;15.70;;;;;;;9.89;100.00;102449.28;4971296;28;20556;-80
2022/11/12 01:20:21;;;;;;;34.50;15.95;;;;;;;9.80;100.00;102447.31;4955437;28;20089;-77
2022/11/12 01:23:05;;;;;;;30.60;16.10;;;;;;;9.74;100.00;102451.31;4973664;28;20129;-78
2022/11/12 01:25:49;;;;;;;39.33;16.42;;;;;;;9.80;100.00;102463.31;4971967;28;20177;-77
2022/11/12 01:28:34;;;;;;;28.02;15.32;;;;;;;9.84;100.00;102454.13;4957838;28;20049;-78
2022/11/12 01:31:21;;;;;;;34.37;16.83;;;;;;;9.76;100.00;102459.16;4951248;28;20061;-77
2022/11/12 01:34:07;;;;;;;34.30;16.27;;;;;;;9.78;100.00;102468.75;4960918;28;21032;-77
2022/11/12 01:36:51;;;;;;;;;;;;;;;9.79;100.00;102466.97;4973965;28;20046;-78
2022/11/12 01:39:35;;;;;;;36.05;16.08;;;;;;;9.79;100.00;102472.28;4965990;28;20521;-78
2022/11/12 01:42:19;;;;;;;34.00;17.98;;;;;;;9.83;100.00;102490.63;4950757;28;20061;-77
2022/11/12 01:45:14;;;;;;;37.72;18.27;;;;;;;9.82;100.00;102480.06;4972089;28;20126;-77
2022/11/12 01:47:58;;;;;;;;;;;;;;;9.85;100.00;102483.31;4971333;28;20453;-77
2022/11/12 01:50:42;;;;;;;35.50;17.30;;;;;;;9.85;100.00;102479.81;4955034;28;19921;-76
2022/11/12 01:53:28;;;;;;;37.25;17.63;;;;;;;9.85;100.00;102477.16;4952857;28;20050;-77
2022/11/12 01:56:15;;;;;;;33.47;16.77;;;;;;;9.88;100.00;102471.56;4962419;28;20077;-76
2022/11/12 01:59:01;;;;;;;;;;;;;;;9.86;100.00;102476.19;4971986;28;20066;-77
2022/11/12 02:01:45;;;;;;;32.55;17.75;;;;;;;9.85;100.00;102463.81;4961127;28;19980;-76
2022/11/12 02:04:30;;;;;;;32.70;17.30;;;;;;;9.84;100.00;102459.47;4953135;28;20049;-77
2022/11/12 02:07:16;;;;;;;34.38;17.80;;;;;;;9.90;100.00;102458.97;4975352;28;20533;-76
2022/11/12 02:10:00;;;;;;;;;;;;;;;9.89;100.00;102458.13;4972850;28;20203;-76
2022/11/12 02:15:48;;;;;;;35.75;16.23;;;;;;;9.81;100.00;102455.19;4958541;28;20045;-77
2022/11/12 02:18:32;;;;;;;33.83;17.52;;;;;;;9.82;100.00;102453.38;4958369;28;20053;-77
2022/11/12 02:21:21;;;;;;;41.28;19.10;;;;;;;9.78;100.00;102462.56;4958251;28;20098;-77
2022/11/12 02:24:24;;;;;;;42.38;18.65;;;;;;;9.77;100.00;102469.72;4971068;28;20058;-78
2022/11/12 02:27:10;;;;;;;35.78;17.90;;;;;;;9.87;100.00;102467.22;4959478;28;20171;-77
2022/11/12 02:29:54;;;;;;;32.60;18.45;;;;;;;9.98;100.00;102461.09;4971338;28;20094;-78
2022/11/12 02:32:39;;;;;;;40.95;17.88;;;;;;;9.97;100.00;102456.69;4944000;28;20114;-77
2022/11/12 02:35:23;;;;;;;40.72;18.17;;;;;;;9.95;100.00;102451.50;4958816;28;20097;-78
2022/11/12 02:38:07;;;;;;;45.95;19.25;;;;;;;9.90;100.00;102453.63;4976642;28;20050;-78
2022/11/12 02:40:52;;;;;;;35.17;19.23;;;;;;;9.91;100.00;102464.19;4967779;28;20475;-76
2022/11/12 02:43:36;;;;;;;39.88;18.58;;;;;;;9.88;100.00;102453.78;4977775;28;20049;-77
2022/11/12 02:46:20;;;;;;;39.22;20.05;;;;;;;9.86;100.00;102466.38;4959433;28;20045;-77
2022/11/12 02:49:04;;;;;;;37.72;18.98;;;;;;;9.90;100.00;102485.66;4976499;28;20098;-77
2022/11/12 02:51:48;;;;;;;35.80;19.55;;;;;;;9.87;100.00;102477.88;4975632;28;20395;-76
2022/11/12 02:54:32;;;;;;;41.78;18.75;;;;;;;9.82;100.00;102458.72;4961581;28;20041;-77
2022/11/12 02:57:16;;;;;;;36.63;19.38;;;;;;;9.83;100.00;102465.75;4954113;28;20113;-77
2022/11/12 03:00:00;;;;;;;37.63;19.45;;;;;;;9.84;100.00;102475.47;4960788;28;20567;-77
2022/11/12 03:02:57;;;;;;;34.22;17.80;;;;;;;9.87;100.00;102470.72;4963558;28;20077;-78
2022/11/12 03:05:42;;;;;;;38.70;18.83;;;;;;;9.97;100.00;102480.72;4974987;28;20097;-77
2022/11/12 03:08:26;;;;;;;45.53;20.90;;;;;;;9.93;100.00;102474.78;4961800;28;20041;-77
2022/11/12 03:11:12;;;;;;;36.92;19.50;;;;;;;9.91;100.00;102455.34;4963830;28;20122;-77
2022/11/12 03:13:56;;;;;;;35.10;17.83;;;;;;;9.89;100.00;102444.78;4964159;28;20070;-77
2022/11/12 03:16:40;;;;;;;38.88;18.98;;;;;;;9.85;100.00;102437.13;4962799;28;20081;-77
2022/11/12 03:19:24;;;;;;;34.55;18.27;;;;;;;9.82;100.00;102445.38;4961199;28;20050;-76
2022/11/12 03:22:08;;;;;;;36.35;19.40;;;;;;;9.86;100.00;102455.69;4964145;28;20418;-77
2022/11/12 03:24:52;;;;;;;38.75;17.70;;;;;;;9.83;100.00;102460.41;4958089;28;20042;-76
2022/11/12 03:27:36;;;;;;;41.33;19.38;;;;;;;9.79;100.00;102466.97;4958938;28;20077;-77
2022/11/12 03:30:21;;;;;;;36.67;18.35;;;;;;;9.80;100.00;102457.97;4962526;28;20065;-77
2022/11/12 03:33:08;;;;;;;42.13;21.80;;;;;;;9.81;100.00;102484.53;4957467;28;20053;-78
2022/11/12 03:35:52;;;;;;;44.67;20.85;;;;;;;9.82;100.00;102478.22;4956109;28;20514;-77
2022/11/12 03:38:36;;;;;;;41.50;20.88;;;;;;;9.82;100.00;102477.38;4963787;28;20097;-78
2022/11/12 03:41:20;;;;;;;43.85;19.73;;;;;;;9.82;100.00;102477.38;4949110;28;20109;-77
2022/11/12 03:44:04;;;;;;;39.67;18.67;;;;;;;9.79;100.00;102491.81;4962926;28;20050;-76
2022/11/12 03:46:48;;;;;;;41.42;20.65;;;;;;;9.80;100.00;102473.97;4958682;28;20539;-77
2022/11/12 03:49:32;;;;;;;42.22;19.50;;;;;;;9.83;100.00;102487.09;4961680;28;20066;-77
2022/11/12 03:52:16;;;;;;;41.20;20.02;;;;;;;9.84;100.00;102491.47;4961482;28;20089;-77
2022/11/12 03:55:00;;;;;;;38.53;19.77;;;;;;;9.81;100.00;102475.66;4958824;28;20094;-77
2022/11/12 03:57:46;;;;;;;35.30;19.73;;;;;;;9.85;100.00;102483.31;4975553;28;20058;-77
2022/11/12 04:00:30;;;;;;;41.05;20.48;;;;;;;9.82;100.00;102488.06;4959878;28;20093;-77
2022/11/12 04:03:14;;;;;;;47.50;20.55;;;;;;;9.84;100.00;102494.13;4966200;28;20074;-76
2022/11/12 04:09:01;;;;;;;47.00;18.55;;;;;;;9.86;100.00;102484.19;4958179;28;20042;-77
2022/11/12 04:11:45;;;;;;;34.53;17.85;;;;;;;9.84;100.00;102486.13;4974842;28;20046;-77
2022/11/12 04:14:29;;;;;;;36.28;18.83;;;;;;;9.84;100.00;102483.47;4964679;28;20050;-77
2022/11/12 04:23:19;;;;;;;37.08;17.98;;;;;;;9.85;100.00;102488.66;4964187;28;20157;-76
2022/11/12 04:32:09;;;;;;;39.63;19.33;;;;;;;9.84;100.00;102491.47;4962055;28;20089;-77
2022/11/12 04:34:53;;;;;;;42.35;17.63;;;;;;;9.85;100.00;102491.31;4973717;28;20098;-77
2022/11/12 04:37:43;;;;;;;43.10;17.73;;;;;;;9.86;100.00;102500.22;4975095;28;20455;-77
2022/11/12 04:46:53;;;;;;;39.03;18.17;;;;;;;9.83;100.00;102479.06;4879020;29;20088;-77
2022/11/12 04:49:37;;;;;;;32.17;18.60;;;;;;;9.80;100.00;102495.31;4955630;28;20037;-77
2022/11/12 04:52:21;;;;;;;35.53;16.83;;;;;;;9.74;100.00;102501.97;4957669;28;20050;-77
2022/11/12 04:55:06;;;;;;;34.47;17.35;;;;;;;9.82;100.00;102490.72;4954660;28;20101;-77
2022/11/12 04:57:49;;;;;;;36.95;16.63;;;;;;;9.77;100.00;102484.88;4960174;28;20050;-76
2022/11/12 05:00:33;;;;;;;44.17;19.85;;;;;;;9.77;100.00;102485.72;4958797;28;20049;-77
2022/11/12 05:03:17;;;;;;;37.38;17.70;;;;;;;9.72;100.00;102483.41;4952010;28;20058;-77
2022/11/12 05:06:49;;;;;;;37.10;18.88;;;;;;;9.72;100.00;102486.06;4958625;28;20403;-77
2022/11/12 05:09:08;;;;;;;37.88;17.08;;;;;;;9.73;100.00;102487.75;4963032;28;20046;-77
2022/11/12 05:11:54;;;;;;;33.60;17.92;;;;;;;9.76;100.00;102492.03;4973287;28;20538;-77
2022/11/12 05:14:38;;;;;;;36.65;17.52;;;;;;;9.73;100.00;102481.59;4962410;28;20085;-77
2022/11/12 05:17:22;;;;;;;38.08;17.35;;;;;;;9.77;100.00;102468.88;4958519;28;20089;-78
2022/11/12 05:20:07;;;;;;;42.05;17.55;;;;;;;9.82;100.00;102467.56;4967684;28;20046;-77
2022/11/12 05:22:51;;;;;;;30.25;16.90;;;;;;;9.80;100.00;102490.00;4960422;28;20106;-77
2022/11/12 05:25:35;;;;;;;33.13;17.52;;;;;;;9.71;100.00;102484.34;4974670;28;20101;-77
2022/11/12 05:28:19;;;;;;;35.67;16.63;;;;;;;9.72;100.00;102477.22;4951095;28;20150;-76
2022/11/12 05:31:03;;;;;;;37.85;18.33;;;;;;;9.62;100.00;102466.41;4958722;28;20510;-77
2022/11/12 05:33:47;;;;;;;36.88;17.17;;;;;;;9.69;100.00;102478.31;4960465;28;20460;-77
2022/11/12 05:36:31;;;;;;;35.05;17.42;;;;;;;9.72;100.00;102496.75;4952582;28;20154;-77
2022/11/12 05:39:15;;;;;;;33.78;18.00;;;;;;;9.62;100.00;102477.06;4951032;28;20065;-77
2022/11/12 05:41:59;;;;;;;37.25;18.25;;;;;;;9.66;100.00;102475.84;4962577;28;20255;-77
2022/11/12 05:44:43;;;;;;;37.13;19.00;;;;;;;9.62;100.00;102477.06;4973893;28;20130;-77
2022/11/12 05:47:26;;;;;;;41.00;18.52;;;;;;;9.63;100.00;102473.44;4952851;28;20089;-77
2022/11/12 05:50:10;;;;;;;37.03;18.27;;;;;;;9.61;100.00;102486.03;4960571;28;20094;-77
2022/11/12 05:52:54;;;;;;;37.17;19.05;;;;;;;9.59;100.00;102506.59;4967214;28;20101;-77
2022/11/12 05:55:38;;;;;;;40.28;19.40;;;;;;;9.63;100.00;102509.91;4974459;28;20058;-77
2022/11/12 05:58:22;;;;;;;40.88;19.10;;;;;;;9.59;100.00;102489.75;4956418;28;20074;-77
2022/11/12 06:01:06;;;;;;;39.88;18.67;;;;;;;9.60;100.00;102500.34;4972198;28;20119;-77
2022/11/12 06:03:50;;;;;;;42.63;21.35;;;;;;;9.55;100.00;102510.47;4959271;28;20145;-77
2022/11/12 06:06:34;;;;;;;43.10;19.50;;;;;;;9.60;100.00;102511.00;4958332;28;20108;-76
2022/11/12 06:09:18;;;;;;;42.10;20.73;;;;;;;9.41;100.00;102474.19;4952367;28;20046;-77
2022/11/12 06:12:05;;;;;;;43.30;20.08;;;;;;;9.41;100.00;102495.50;4951589;28;20053;-76
2022/11/12 06:14:49;;;;;;;41.55;20.08;;;;;;;9.42;100.00;102499.84;4963348;28;20164;-77
2022/11/12 06:17:33;;;;;;;41.92;21.90;;;;;;;9.23;100.00;102487.03;4961722;28;20054;-77
2022/11/12 06:20:18;;;;;;;49.03;21.80;;;;;;;9.19;100.00;102490.88;4961988;28;20456;-77
2022/11/12 06:23:02;;;;;;;42.20;20.20;;;;;;;9.14;100.00;102489.50;4962300;28;20065;-77
2022/11/12 06:25:46;;;;;;;36.88;19.77;;;;;;;9.21;100.00;102507.59;4963296;28;20097;-77
2022/11/12 06:28:30;;;;;;;44.38;19.90;;;;;;;9.22;100.00;102493.28;4961576;28;20053;-77
2022/11/12 06:31:15;;;;;;;42.78;21.20;;;;;;;9.06;100.00;102476.72;4963439;28;20599;-77
2022/11/12 06:33:59;;;;;;;46.95;23.20;;;;;;;9.00;100.00;102482.50;4962868;28;20054;-75
2022/11/12 06:36:43;;;;;;;45.17;22.98;;;;;;;9.03;100.00;102506.25;4960878;28;20065;-76
2022/11/12 06:39:27;;;;;;;38.92;20.58;;;;;;;9.14;100.00;102506.34;4963609;28;20113;-79
2022/11/12 06:42:11;;;;;;;49.75;22.35;;;;;;;9.05;100.00;102493.66;4977870;28;20062;-79
2022/11/12 06:44:55;;;;;;;41.10;20.45;;;;;;;9.03;100.00;102479.59;4961963;28;20074;-77
2022/11/12 06:47:39;;;;;;;41.53;20.70;;;;;;;9.11;100.00;102487.91;4952030;29;20122;-77
2022/11/12 06:50:23;;;;;;;42.30;21.13;;;;;;;9.02;100.00;102493.91;4950705;29;20118;-79
2022/11/12 06:53:07;;;;;;;37.22;20.25;;;;;;;9.10;100.00;102520.84;4947148;29;20105;-78
2022/11/12 06:55:51;;;;;;;41.95;20.05;;;;;;;9.08;100.00;102494.31;4961094;28;20066;-79
2022/11/12 06:58:35;;;;;;;36.10;20.55;;;;;;;9.01;100.00;102508.16;4963621;28;20054;-78
2022/11/12 07:01:19;;;;;;;43.42;20.67;;;;;;;9.01;100.00;102526.81;4954598;28;20101;-80
2022/11/12 07:04:04;;;;;;;38.38;19.23;;;;;;;9.14;100.00;102532.97;4973907;28;20186;-79
2022/11/12 07:06:48;;;;;;;48.42;22.67;;;;;;;8.97;100.00;102506.72;4974206;28;20109;-78
2022/11/12 07:09:32;;;;;;;38.03;19.52;;;;;;;9.05;100.00;102512.31;4960772;28;20046;-79
2022/11/12 07:12:16;;;;;;;48.20;22.58;;;;;;;9.06;100.00;102511.34;4950624;29;20118;-78
2022/11/12 07:15:00;;;;;;;45.30;21.50;;;;;;;9.11;100.00;102517.22;4958587;28;20050;-77
2022/11/12 07:17:45;;;;;;;37.92;18.98;;;;;;;9.14;100.00;102521.47;4952302;29;20113;-78
2022/11/12 07:20:29;;;;;;;35.55;20.48;;;;;;;9.13;100.00;102512.66;4951912;28;20100;-78
2022/11/12 07:23:13;;;;;;;42.60;21.83;;;;;;;9.22;100.00;102533.28;4950396;28;20097;-79
2022/11/12 07:26:23;;;;;;;37.85;18.95;;;;;;;9.22;100.00;102535.94;4952142;29;20061;-76
2022/11/12 07:29:07;;;;;;;34.72;18.48;;;;;;;9.31;100.00;102539.75;4958436;28;20049;-79
2022/11/12 07:31:51;;;;;;;35.10;18.92;;;;;;;9.33;100.00;102534.34;4952019;28;20062;-78
2022/11/12 07:34:35;;;;;;;37.25;19.48;;;;;;;9.36;100.00;102539.44;4973764;28;20085;-77
2022/11/12 07:37:20;;;;;;;44.72;20.98;;;;;;;9.49;100.00;102545.59;4952665;29;20105;-78
2022/11/12 07:40:04;;;;;;;42.78;19.55;;;;;;;9.53;100.00;102517.75;4952133;28;20976;-78
2022/11/12 07:42:48;;;;;;;37.42;19.90;;;;;;;9.49;100.00;102502.94;4951600;29;20078;-78
2022/11/12 07:45:32;;;;;;;40.58;20.75;;;;;;;9.55;100.00;102515.78;4952589;29;20054;-79
2022/11/12 07:48:16;;;;;;;31.38;17.95;;;;;;;9.65;100.00;102524.84;4957452;28;20058;-78
2022/11/12 07:51:06;;;;;;;36.33;18.33;;;;;;;9.70;100.00;102512.00;4944243;29;20405;-78
2022/11/12 07:53:53;;;;;;;37.67;19.63;;;;;;;9.62;100.00;102493.06;4959802;28;20058;-79
2022/11/12 07:56:37;;;;;;;42.40;20.02;;;;;;;9.59;100.00;102490.63;4951963;29;20078;-79
2022/11/12 07:59:21;;;;;;;40.42;18.35;;;;;;;9.71;100.00;102515.53;4954894;28;20053;-79
2022/11/12 08:02:08;;;;;;;39.50;20.58;;;;;;;9.65;100.00;102490.16;4944255;29;20046;-78
2022/11/12 08:04:52;;;;;;;37.08;19.17;;;;;;;9.67;100.00;102464.25;4952053;28;20135;-80
2022/11/12 08:07:36;;;;;;;37.70;20.73;;;;;;;9.69;100.00;102472.97;4965130;28;20524;-80
2022/11/12 08:10:20;;;;;;;39.15;18.67;;;;;;;9.78;100.00;102475.91;4958915;28;20062;-80
2022/11/12 08:13:05;;;;;;;40.25;20.13;;;;;;;9.77;100.00;102455.56;4944315;29;20453;-79
2022/11/12 08:15:48;;;;;;;36.83;19.98;;;;;;;9.78;100.00;102441.22;4956950;28;20046;-80
2022/11/12 08:18:33;;;;;;;41.53;20.85;;;;;;;9.68;100.00;102428.59;4954944;28;20113;-79
2022/11/12 08:21:17;;;;;;;40.67;19.10;;;;;;;9.86;100.00;102454.84;4953378;28;20041;-79
2022/11/12 08:24:02;;;;;;;26.52;14.32;;;;;;;9.95;100.00;102446.16;4975215;28;20046;-79
2022/11/12 08:26:46;;;;;;;34.83;19.08;;;;;;;9.99;100.00;102414.75;4975022;28;20566;-80
2022/11/12 08:29:30;;;;;;;36.85;19.13;;;;;;;10.01;100.00;102416.31;4955550;28;20055;-79
2022/11/12 08:32:14;;;;;;;39.65;19.58;;;;;;;10.00;100.00;102416.47;4975842;28;20112;-80
2022/11/12 08:34:59;;;;;;;39.38;19.35;;;;;;;10.18;100.00;102427.50;4971521;28;20118;-79
2022/11/12 08:37:42;;;;;;;39.53;19.50;;;;;;;9.91;100.00;102370.81;4963508;28;20045;-79
2022/11/12 08:40:28;;;;;;;40.30;18.80;;;;;;;9.86;100.00;102372.16;4956383;28;20045;-80
2022/11/12 08:43:12;;;;;;;36.28;19.45;;;;;;;9.84;100.00;102379.44;4977599;28;20511;-79
2022/11/12 08:46:00;;;;;;;37.28;20.13;;;;;;;9.94;100.00;102412.41;4960338;28;20101;-79
2022/11/12 08:48:44;;;;;;;44.15;21.77;;;;;;;9.62;100.00;102369.53;4961493;28;20050;-80
2022/11/12 08:51:28;;;;;;;43.17;21.73;;;;;;;9.61;100.00;102376.69;4961936;28;20049;-79
2022/11/12 08:54:12;;;;;;;30.63;17.92;;;;;;;9.66;100.00;102387.84;4962822;28;20423;-79
2022/11/12 08:56:56;;;;;;;36.53;19.45;;;;;;;9.90;100.00;102417.16;4952478;28;20071;-79
2022/11/12 08:59:40;;;;;;;36.35;17.45;;;;;;;9.88;100.00;102381.75;4952630;28;20070;-79
2022/11/12 09:02:24;;;;;;;43.10;19.77;;;;;;;9.71;100.00;102348.34;4957014;28;20132;-75
2022/11/12 09:05:08;;;;;;;35.50;18.38;;;;;;;9.80;100.00;102356.63;4951093;28;20042;-78
2022/11/12 09:08:05;;;;;;;34.80;19.85;;;;;;;9.94;100.00;102364.41;4955861;28;20098;-78
2022/11/12 09:10:49;;;;;;;36.60;18.35;;;;;;;10.01;100.00;102378.13;4955896;28;20130;-78
2022/11/12 09:13:34;;;;;;;36.22;19.45;;;;;;;10.08;100.00;102377.50;4956036;28;20124;-78
2022/11/12 09:16:18;;;;;;;36.63;19.05;;;;;;;9.71;100.00;102348.34;4946940;28;20078;-79
2022/11/12 09:19:02;;;;;;;33.95;19.08;;;;;;;9.77;100.00;102364.88;4956190;28;20042;-78
2022/11/12 09:21:45;;;;;;;35.97;20.17;;;;;;;9.99;100.00;102414.75;4952019;28;20094;-78
2022/11/12 09:24:30;;;;;;;33.88;18.70;;;;;;;10.22;100.00;102420.97;4956956;28;20052;-78
2022/11/12 09:27:13;;;;;;;35.75;18.60;;;;;;;10.26;100.00;102377.06;4973622;28;20081;-79
2022/11/12 09:29:57;;;;;;;39.47;19.23;;;;;;;10.11;100.00;102347.94;4954203;28;20415;-78
2022/11/12 09:32:41;;;;;;;38.00;18.83;;;;;;;10.22;100.00;102363.09;4948878;28;20573;-78
2022/11/12 09:35:25;;;;;;;34.40;18.35;;;;;;;10.48;100.00;102370.91;4948467;29;20042;-77
2022/11/12 09:38:10;;;;;;;36.03;18.42;;;;;;;10.33;100.00;102325.75;4961230;28;20393;-76
2022/11/12 09:41:01;;;;;;;35.92;18.58;;;;;;;10.46;100.00;102325.59;4951801;28;20354;-78
2022/11/12 09:43:51;;;;;;;38.17;20.05;;;;;;;10.24;100.00;102296.25;4954436;28;20074;-78
2022/11/12 09:46:48;;;;;;;37.65;18.92;;;;;;;10.43;100.00;102336.53;4955497;28;20151;-78
2022/11/12 09:49:39;;;;;;;31.70;17.50;;;;;;;10.65;100.00;102361.53;4972452;28;20097;-78
2022/11/12 09:52:26;;;;;;;39.33;19.73;;;;;;;10.72;100.00;102330.66;4957591;28;20238;-78
2022/11/12 09:55:22;;;;;;;34.45;17.58;;;;;;;10.68;100.00;102322.06;4972790;28;20085;-78
2022/11/12 09:58:14;;;;;;;36.03;18.90;;;;;;;10.50;100.00;102320.88;4965151;28;20050;-78
2022/11/12 10:01:06;;;;;;;38.00;17.95;;;;;;;10.49;100.00;102341.41;4955640;28;20103;-78
2022/11/12 10:04:27;;;;;;;34.70;19.52;;;;;;;10.46;100.00;102368.34;4955232;28;20517;-75
2022/11/12 10:07:32;;;;;;;34.90;20.75;;;;;;;10.45;100.00;102408.53;4957699;28;20053;-78
2022/11/12 10:10:33;;;;;;;38.08;20.85;;;;;;;10.73;100.00;102447.25;4959490;28;20459;-78
2022/11/12 10:13:23;;;;;;;38.17;18.92;;;;;;;10.62;100.00;102418.72;4958741;28;20093;-78
2022/11/12 10:19:34;;;;;;;31.17;19.42;;;;;;;10.85;100.00;102408.00;4958731;28;20178;-78
2022/11/12 10:22:48;;;;;;;32.97;19.25;;;;;;;10.72;100.00;102365.41;4960996;28;20081;-79
2022/11/12 10:25:34;;;;;;;38.78;18.85;;;;;;;11.11;100.00;102419.25;4955327;28;20093;-76
2022/11/12 10:28:27;;;;;;;30.53;17.47;;;;;;;11.35;100.00;102416.38;4956636;28;20037;-78
2022/11/12 10:31:17;;;;;;;33.78;17.75;;;;;;;11.47;100.00;102361.03;4955059;28;20474;-77
2022/11/12 10:34:18;;;;;;;33.15;17.67;;;;;;;10.96;100.00;102293.94;4954820;28;20050;-77
2022/11/12 10:37:12;;;;;;;30.40;18.80;;;;;;;10.98;100.00;102350.78;4937891;28;20050;-78
2022/11/12 10:39:56;;;;;;;33.30;18.80;;;;;;;11.58;100.00;102406.44;4954128;28;20402;-75
2022/11/12 10:43:16;;;;;;;33.67;17.30;;;;;;;11.27;100.00;102318.09;4967280;28;20053;-78
2022/11/12 10:46:17;;;;;;;29.25;17.30;;;;;;;11.61;100.00;102355.34;4932507;28;20125;-78
2022/11/12 10:49:07;;;;;;;28.42;16.92;;;;;;;11.96;100.00;102308.69;4942475;29;20039;-78
2022/11/12 10:51:58;;;;;;;28.98;16.75;;;;;;;12.31;100.00;102275.31;4949136;28;20430;-78
2022/11/12 10:54:42;;;;;;;30.23;16.20;;;;;;;12.40;100.00;102204.84;4954913;28;20458;-75
2022/11/12 10:57:26;;;;;;;28.10;16.55;;;;;;;12.45;100.00;102141.00;4952489;28;20085;-76
2022/11/12 11:00:17;;;;;;;28.90;16.70;;;;;;;12.16;100.00;102103.50;4956664;28;20187;-75
2022/11/12 11:03:06;;;;;;;26.67;15.38;;;;;;;12.54;100.00;102185.69;4958552;28;20046;-78
2022/11/12 11:05:57;;;;;;;23.73;14.55;;;;;;;12.78;100.00;102139.72;4963792;28;20054;-79
2022/11/12 11:08:46;;;;;;;37.08;16.83;;;;;;;12.89;100.00;102053.78;4956434;28;20367;-78
2022/11/12 11:11:30;;;;;;;32.67;15.88;;;;;;;12.99;100.00;101989.41;4955727;28;20066;-76
2022/11/12 11:14:21;;;;;;;21.67;13.48;;;;;;;13.26;100.00;102060.13;4972363;28;20165;-76
2022/11/12 11:17:08;;;;;;;24.35;14.98;;;;;;;13.97;100.00;101984.28;4957499;28;20713;-78
2022/11/12 11:19:53;;;;;;;25.55;14.82;;;;;;;13.93;100.00;101798.50;4972472;28;20054;-78
2022/11/12 11:22:41;;;;;;;22.92;14.77;;;;;;;14.92;100.00;101793.53;4959077;28;20102;-79
2022/11/12 11:25:27;;;;;;;24.80;14.52;;;;;;;14.90;100.00;101608.19;4955119;29;20050;-79
2022/11/12 11:28:41;;;;;;;21.73;13.48;;;;;;;16.09;100.00;101575.97;4976769;28;20053;-78
2022/11/12 11:31:38;;;;;;;22.45;13.73;;;;;;;16.57;100.00;101283.63;4961698;28;20099;-78
2022/11/12 11:34:43;;;;;;;23.05;13.35;;;;;;;17.21;100.00;101139.91;4972850;28;20054;-79
2022/11/12 11:37:28;;;;;;;;;;;;;;;17.35;97.78;100924.09;4959157;28;20046;-76
2022/11/12 11:40:27;;;;;;;20.95;11.88;;;;;;;17.47;94.63;100814.53;4956012;28;19985;-76
2022/11/12 11:43:26;;;;;;;24.50;13.48;;;;;;;17.47;93.93;100860.41;4958409;28;20062;-76
2022/11/12 11:46:16;;;;;;;20.25;13.23;;;;;;;17.45;89.96;100577.22;4955987;28;20050;-75
2022/11/12 11:49:16;;;;;;;23.38;13.98;;;;;;;16.87;92.06;100750.50;4953582;28;20062;-75
2022/11/12 11:52:22;;;;;;;29.83;13.68;;;;;;;17.16;93.29;100988.59;4954141;28;20042;-75
2022/11/12 11:55:21;;;;;;;20.20;13.40;;;;;;;17.45;92.08;100987.44;4954827;28;20421;-75
2022/11/12 11:58:38;;;;;;;18.45;11.50;;;;;;;17.38;88.86;100675.44;4953018;28;20135;-75
2022/11/12 12:01:28;;;;;;;25.80;12.60;;;;;;;18.02;87.59;100777.31;4957182;28;20141;-75
2022/11/12 12:04:32;;;;;;;24.45;12.95;;;;;;;17.88;86.11;100621.75;4957700;28;20473;-74
2022/11/12 12:07:16;;;;;;;19.65;12.48;;;;;;;18.24;85.72;100747.34;4955948;28;20053;-75
2022/11/12 12:10:16;;;;;;;17.63;11.20;;;;;;;18.56;83.39;100632.00;4956351;28;20111;-75
2022/11/12 12:13:09;;;;;;;24.40;11.82;;;;;;;18.44;81.86;100450.78;4954996;28;20460;-75
2022/11/12 12:16:02;;;;;;;20.83;12.40;;;;;;;18.12;81.30;100326.56;4953573;28;20789;-75
2022/11/12 12:18:58;;;;;;;25.88;13.00;;;;;;;17.88;81.64;100411.13;4950950;28;20050;-75
2022/11/12 12:21:47;;;;;;;18.27;11.95;;;;;;;18.02;81.50;100492.88;4956529;28;20125;-75
2022/11/12 12:24:47;;;;;;;20.33;11.80;;;;;;;17.58;83.52;100632.19;4949519;28;20049;-75
2022/11/12 12:27:37;;;;;;;20.42;12.68;;;;;;;15.95;85.65;100454.75;4956585;28;20183;-74
2022/11/12 12:30:23;;;;;;;22.13;12.68;;;;;;;16.36;89.16;100979.09;4954882;28;20053;-75
2022/11/12 12:33:26;;;;;;;21.45;12.05;;;;;;;16.38;91.93;101238.41;4948990;29;20587;-75
2022/11/12 12:36:18;;;;;;;20.42;12.05;;;;;;;16.58;92.53;101350.00;4961345;28;20066;-75
2022/11/12 12:39:24;;;;;;;21.63;12.55;;;;;;;17.02;88.36;101067.72;4948547;29;20046;-74
2022/11/12 12:42:11;;;;;;;26.65;14.45;;;;;;;16.90;90.01;101185.28;4947679;29;20756;-77
2022/11/12 12:45:13;;;;;;;21.02;12.27;;;;;;;16.88;91.39;101372.41;4948262;28;20046;-74
2022/11/12 12:48:00;;;;;;;28.02;14.63;;;;;;;16.10;94.09;101302.91;4958576;28;20125;-74
2022/11/12 12:50:47;;;;;;;24.90;13.60;;;;;;;16.93;93.56;101506.69;4948458;28;20536;-74
2022/11/12 12:53:33;;;;;;;27.13;14.77;;;;;;;15.97;96.78;101467.81;4957777;28;20053;-74
2022/11/12 12:56:29;;;;;;;22.20;11.82;;;;;;;16.85;94.55;101539.94;4955319;28;20294;-75
2022/11/12 12:59:22;;;;;;;23.73;12.10;;;;;;;16.64;93.16;101329.53;4958520;28;20141;-76
2022/11/12 13:02:20;;;;;;;22.17;12.52;;;;;;;16.42;94.82;101456.13;4949443;28;20081;-77
2022/11/12 13:05:05;;;;;;;22.15;12.38;;;;;;;16.88;94.08;101507.25;4951831;28;20109;-74
2022/11/12 13:07:50;;;;;;;20.33;13.00;;;;;;;15.50;98.20;101449.91;4955881;28;20049;-74